KNE1428 OEJN-OEMA
Flight info
| Callsign | KNE1428 |
|---|---|
| Flight time | 0h 38m |
| Altitude | 32000 |
| Route | DATAP A424 DEGVU |
| Aircraft | A320/M-SDE3FGHIRWY/LB1 |
Departure
| Time | 2026-04-30 11:53 |
|---|---|
| Airport | King Abdulaziz International Airport (OEJN) |
Arrival
| Time | 2026-04-30 12:31 |
|---|---|
| Airport | Prince Mohammad Bin Abdulaziz Airport (OEMA) |
| Time | Latitude | Longitude | Altitude | Speed | Heading |
|---|---|---|---|---|---|
| 2026-04-30 11:37 | 21.66408 | 39.17129 | 30 ft | 0 kts | 92° |
| 2026-04-30 11:45 | 21.66409 | 39.17118 | 31 ft | 4 kts | 93° |
| 2026-04-30 11:46 | 21.66411 | 39.17089 | 31 ft | 4 kts | 96° |
| 2026-04-30 11:46 | 21.66415 | 39.17061 | 31 ft | 4 kts | 102° |
| 2026-04-30 11:46 | 21.66423 | 39.17034 | 31 ft | 4 kts | 125° |
| 2026-04-30 11:46 | 21.66438 | 39.17020 | 31 ft | 1 kts | 179° |
| 2026-04-30 11:49 | 21.66434 | 39.17020 | 31 ft | 4 kts | 184° |
| 2026-04-30 11:49 | 21.66419 | 39.16987 | 31 ft | 7 kts | 251° |
| 2026-04-30 11:49 | 21.66397 | 39.16919 | 31 ft | 11 kts | 251° |
| 2026-04-30 11:50 | 21.66370 | 39.16834 | 31 ft | 13 kts | 251° |
| 2026-04-30 11:50 | 21.66335 | 39.16733 | 31 ft | 16 kts | 249° |
| 2026-04-30 11:50 | 21.66310 | 39.16662 | 31 ft | 3 kts | 250° |
| 2026-04-30 11:50 | 21.66304 | 39.16643 | 30 ft | 2 kts | 250° |
| 2026-04-30 11:51 | 21.66300 | 39.16630 | 31 ft | 2 kts | 250° |
| 2026-04-30 11:51 | 21.66296 | 39.16619 | 31 ft | 3 kts | 250° |
| 2026-04-30 11:51 | 21.66270 | 39.16542 | 31 ft | 16 kts | 249° |
| 2026-04-30 11:51 | 21.66251 | 39.16439 | 30 ft | 13 kts | 303° |
| 2026-04-30 11:52 | 21.66312 | 39.16415 | 32 ft | 17 kts | 341° |
| 2026-04-30 11:52 | 21.66683 | 39.16268 | 40 ft | 94 kts | 339° |
| 2026-04-30 11:52 | 21.67500 | 39.15945 | 37 ft | 153 kts | 340° |
| 2026-04-30 11:52 | 21.68553 | 39.15519 | 538 ft | 166 kts | 336° |
| 2026-04-30 11:53 | 21.69642 | 39.15091 | 1379 ft | 168 kts | 336° |
| 2026-04-30 11:53 | 21.70779 | 39.14643 | 1850 ft | 183 kts | 336° |
| 2026-04-30 11:53 | 21.72049 | 39.14138 | 2140 ft | 207 kts | 338° |
| 2026-04-30 11:53 | 21.73484 | 39.13569 | 2511 ft | 232 kts | 338° |
| 2026-04-30 11:54 | 21.75075 | 39.12942 | 3036 ft | 254 kts | 339° |
| 2026-04-30 11:54 | 21.76785 | 39.12270 | 3810 ft | 266 kts | 339° |
| 2026-04-30 11:54 | 21.78547 | 39.11576 | 4717 ft | 272 kts | 339° |
| 2026-04-30 11:54 | 21.80341 | 39.10870 | 5621 ft | 275 kts | 339° |
| 2026-04-30 11:55 | 21.82155 | 39.10158 | 6475 ft | 280 kts | 340° |
| 2026-04-30 11:55 | 21.84092 | 39.09828 | 7297 ft | 288 kts | 2° |
| 2026-04-30 11:55 | 21.86044 | 39.10367 | 8104 ft | 294 kts | 22° |
| 2026-04-30 11:55 | 21.87936 | 39.11261 | 8927 ft | 298 kts | 23° |
| 2026-04-30 11:56 | 21.89843 | 39.12179 | 9732 ft | 302 kts | 23° |
| 2026-04-30 11:56 | 21.91794 | 39.13122 | 10308 ft | 316 kts | 23° |
| 2026-04-30 11:56 | 21.93874 | 39.14121 | 10598 ft | 339 kts | 22° |
| 2026-04-30 11:56 | 21.96064 | 39.15171 | 11181 ft | 349 kts | 22° |
| 2026-04-30 11:57 | 21.98306 | 39.16247 | 11899 ft | 355 kts | 22° |
| 2026-04-30 11:57 | 22.00586 | 39.17338 | 12606 ft | 361 kts | 22° |
| 2026-04-30 11:57 | 22.02867 | 39.18424 | 13347 ft | 365 kts | 22° |
| 2026-04-30 11:57 | 22.05195 | 39.19534 | 14091 ft | 368 kts | 21° |
| 2026-04-30 11:58 | 22.07546 | 39.20659 | 14818 ft | 371 kts | 21° |
| 2026-04-30 11:58 | 22.09923 | 39.21798 | 15517 ft | 374 kts | 21° |
| 2026-04-30 11:58 | 22.12310 | 39.22942 | 16214 ft | 377 kts | 21° |
| 2026-04-30 11:58 | 22.14721 | 39.24096 | 16896 ft | 380 kts | 20° |
| 2026-04-30 11:59 | 22.17152 | 39.25260 | 17589 ft | 382 kts | 20° |
| 2026-04-30 11:59 | 22.19594 | 39.26432 | 18217 ft | 386 kts | 20° |
| 2026-04-30 11:59 | 22.22058 | 39.27613 | 18841 ft | 389 kts | 20° |
| 2026-04-30 11:59 | 22.24552 | 39.28809 | 19433 ft | 393 kts | 20° |
| 2026-04-30 12:00 | 22.27066 | 39.30012 | 19986 ft | 398 kts | 20° |
| 2026-04-30 12:00 | 22.29613 | 39.31230 | 20537 ft | 402 kts | 20° |
| 2026-04-30 12:00 | 22.32182 | 39.32461 | 21063 ft | 407 kts | 20° |
| 2026-04-30 12:00 | 22.34784 | 39.33706 | 21588 ft | 411 kts | 20° |
| 2026-04-30 12:01 | 22.37409 | 39.34962 | 22094 ft | 415 kts | 20° |
| 2026-04-30 12:01 | 22.40060 | 39.36232 | 22596 ft | 419 kts | 20° |
| 2026-04-30 12:01 | 22.42741 | 39.37520 | 22882 ft | 422 kts | 20° |
| 2026-04-30 12:01 | 22.45405 | 39.38803 | 22947 ft | 412 kts | 20° |
| 2026-04-30 12:02 | 22.47977 | 39.40049 | 22952 ft | 399 kts | 20° |
| 2026-04-30 12:02 | 22.50492 | 39.41265 | 22962 ft | 395 kts | 20° |
| 2026-04-30 12:02 | 22.53009 | 39.42478 | 22963 ft | 395 kts | 20° |
| 2026-04-30 12:02 | 22.55513 | 39.43682 | 22961 ft | 394 kts | 20° |
| 2026-04-30 12:03 | 22.58016 | 39.44890 | 22983 ft | 394 kts | 20° |
| 2026-04-30 12:03 | 22.63020 | 39.47307 | 22961 ft | 393 kts | 20° |
| 2026-04-30 12:03 | 22.65522 | 39.48513 | 22960 ft | 393 kts | 20° |
| 2026-04-30 12:04 | 22.68053 | 39.49640 | 22961 ft | 392 kts | 17° |
| 2026-04-30 12:04 | 22.70590 | 39.50653 | 22965 ft | 392 kts | 15° |
| 2026-04-30 12:04 | 22.73165 | 39.51612 | 22966 ft | 392 kts | 14° |
| 2026-04-30 12:04 | 22.74467 | 39.52087 | 22967 ft | 392 kts | 14° |
| 2026-04-30 12:05 | 22.75429 | 39.52438 | 22968 ft | 392 kts | 14° |
| 2026-04-30 12:05 | 22.78036 | 39.53395 | 22968 ft | 391 kts | 14° |
| 2026-04-30 12:05 | 22.80613 | 39.54360 | 22968 ft | 392 kts | 15° |
| 2026-04-30 12:05 | 22.83182 | 39.55341 | 22969 ft | 392 kts | 15° |
| 2026-04-30 12:06 | 22.85745 | 39.56336 | 22968 ft | 391 kts | 15° |
| 2026-04-30 12:06 | 22.88309 | 39.57337 | 22966 ft | 391 kts | 15° |
| 2026-04-30 12:06 | 22.90865 | 39.58332 | 22967 ft | 391 kts | 15° |
| 2026-04-30 12:06 | 22.93425 | 39.59325 | 22962 ft | 391 kts | 15° |
| 2026-04-30 12:07 | 22.95983 | 39.60318 | 22991 ft | 389 kts | 15° |
| 2026-04-30 12:07 | 22.98529 | 39.61310 | 22982 ft | 389 kts | 15° |
| 2026-04-30 12:07 | 23.01194 | 39.62151 | 22973 ft | 409 kts | 8° |
| 2026-04-30 12:07 | 23.04075 | 39.62640 | 22961 ft | 427 kts | 1° |
| 2026-04-30 12:08 | 23.07095 | 39.62802 | 22967 ft | 442 kts | 358° |
| 2026-04-30 12:08 | 23.10215 | 39.62942 | 22963 ft | 456 kts | 358° |
| 2026-04-30 12:08 | 23.13442 | 39.63102 | 22961 ft | 469 kts | 359° |
| 2026-04-30 12:08 | 23.16703 | 39.63273 | 22948 ft | 481 kts | 359° |
| 2026-04-30 12:09 | 23.20124 | 39.63458 | 22938 ft | 489 kts | 359° |
| 2026-04-30 12:09 | 23.23530 | 39.63646 | 22931 ft | 491 kts | 359° |
| 2026-04-30 12:09 | 23.26903 | 39.63834 | 22933 ft | 492 kts | 359° |
| 2026-04-30 12:09 | 23.30322 | 39.64020 | 22933 ft | 492 kts | 359° |
| 2026-04-30 12:10 | 23.33754 | 39.64201 | 22934 ft | 493 kts | 358° |
| 2026-04-30 12:10 | 23.37177 | 39.64379 | 22931 ft | 492 kts | 359° |
| 2026-04-30 12:10 | 23.40599 | 39.64553 | 22934 ft | 492 kts | 359° |
| 2026-04-30 12:10 | 23.44033 | 39.64729 | 22933 ft | 492 kts | 359° |
| 2026-04-30 12:11 | 23.47458 | 39.64907 | 22938 ft | 494 kts | 359° |
| 2026-04-30 12:11 | 23.50892 | 39.65089 | 22940 ft | 494 kts | 359° |
| 2026-04-30 12:11 | 23.54334 | 39.65270 | 22940 ft | 494 kts | 359° |
| 2026-04-30 12:11 | 23.57769 | 39.65450 | 22940 ft | 493 kts | 359° |
| 2026-04-30 12:12 | 23.61195 | 39.65631 | 22936 ft | 494 kts | 359° |
| 2026-04-30 12:12 | 23.64590 | 39.65810 | 22934 ft | 493 kts | 359° |
| 2026-04-30 12:12 | 23.68062 | 39.66004 | 22936 ft | 494 kts | 1° |
| 2026-04-30 12:12 | 23.71429 | 39.66549 | 22933 ft | 499 kts | 9° |
| 2026-04-30 12:13 | 23.74766 | 39.67652 | 22970 ft | 502 kts | 18° |
| 2026-04-30 12:13 | 23.78026 | 39.69054 | 22960 ft | 503 kts | 18° |
| 2026-04-30 12:13 | 23.81282 | 39.70458 | 22954 ft | 504 kts | 18° |
| 2026-04-30 12:13 | 23.84552 | 39.71864 | 22953 ft | 504 kts | 18° |
| 2026-04-30 12:14 | 23.87819 | 39.73264 | 22991 ft | 503 kts | 18° |
| 2026-04-30 12:14 | 23.91084 | 39.74666 | 22984 ft | 504 kts | 18° |
| 2026-04-30 12:14 | 23.94349 | 39.76066 | 22977 ft | 504 kts | 18° |
| 2026-04-30 12:14 | 23.97586 | 39.77454 | 22971 ft | 504 kts | 18° |
| 2026-04-30 12:15 | 24.00894 | 39.78874 | 22964 ft | 504 kts | 18° |
| 2026-04-30 12:15 | 24.04156 | 39.80277 | 22957 ft | 504 kts | 18° |
| 2026-04-30 12:15 | 24.07414 | 39.81682 | 22952 ft | 503 kts | 18° |
| 2026-04-30 12:15 | 24.10671 | 39.83088 | 22948 ft | 503 kts | 18° |
| 2026-04-30 12:16 | 24.13936 | 39.84500 | 22944 ft | 503 kts | 18° |
| 2026-04-30 12:16 | 24.17191 | 39.85907 | 22892 ft | 500 kts | 18° |
| 2026-04-30 12:16 | 24.20367 | 39.87095 | 22643 ft | 477 kts | 11° |
| 2026-04-30 12:16 | 24.23557 | 39.87725 | 22392 ft | 455 kts | 1° |
| 2026-04-30 12:17 | 24.29616 | 39.87439 | 21893 ft | 415 kts | 345° |
| 2026-04-30 12:17 | 24.32409 | 39.86852 | 21641 ft | 403 kts | 344° |
| 2026-04-30 12:17 | 24.35122 | 39.86286 | 21392 ft | 391 kts | 344° |
| 2026-04-30 12:18 | 24.37763 | 39.85733 | 21139 ft | 381 kts | 344° |
| 2026-04-30 12:18 | 24.40300 | 39.85202 | 20893 ft | 371 kts | 344° |
| 2026-04-30 12:18 | 24.41999 | 39.84847 | 20726 ft | 365 kts | 344° |
| 2026-04-30 12:18 | 24.45254 | 39.84166 | 20473 ft | 352 kts | 343° |
| 2026-04-30 12:19 | 24.46866 | 39.83829 | 20407 ft | 343 kts | 343° |
| 2026-04-30 12:19 | 24.49907 | 39.83182 | 20207 ft | 331 kts | 343° |
| 2026-04-30 12:19 | 24.51430 | 39.82854 | 20008 ft | 328 kts | 343° |
| 2026-04-30 12:19 | 24.54395 | 39.82209 | 19275 ft | 333 kts | 343° |
| 2026-04-30 12:20 | 24.55954 | 39.81864 | 18666 ft | 343 kts | 343° |
| 2026-04-30 12:20 | 24.58343 | 39.81336 | 17741 ft | 357 kts | 343° |
| 2026-04-30 12:20 | 24.60796 | 39.80802 | 16889 ft | 369 kts | 344° |
| 2026-04-30 12:20 | 24.63310 | 39.80270 | 16339 ft | 367 kts | 345° |
| 2026-04-30 12:21 | 24.65815 | 39.79747 | 15833 ft | 365 kts | 345° |
| 2026-04-30 12:21 | 24.68306 | 39.79227 | 15293 ft | 364 kts | 345° |
| 2026-04-30 12:21 | 24.70795 | 39.78704 | 14754 ft | 363 kts | 346° |
| 2026-04-30 12:21 | 24.73269 | 39.78182 | 14238 ft | 361 kts | 346° |
| 2026-04-30 12:22 | 24.75728 | 39.77660 | 13737 ft | 359 kts | 346° |
| 2026-04-30 12:22 | 24.78177 | 39.77136 | 13224 ft | 357 kts | 346° |
| 2026-04-30 12:22 | 24.80615 | 39.76616 | 12682 ft | 356 kts | 347° |
| 2026-04-30 12:22 | 24.83032 | 39.76103 | 12228 ft | 352 kts | 347° |
| 2026-04-30 12:23 | 24.85432 | 39.75592 | 11702 ft | 350 kts | 347° |
| 2026-04-30 12:23 | 24.87794 | 39.75089 | 11155 ft | 341 kts | 347° |
| 2026-04-30 12:23 | 24.90075 | 39.74531 | 10618 ft | 330 kts | 339° |
| 2026-04-30 12:23 | 24.91928 | 39.73203 | 10121 ft | 311 kts | 309° |
| 2026-04-30 12:24 | 24.92862 | 39.71152 | 9640 ft | 297 kts | 278° |
| 2026-04-30 12:24 | 24.92828 | 39.68907 | 9202 ft | 292 kts | 259° |
| 2026-04-30 12:24 | 24.92327 | 39.66735 | 8710 ft | 293 kts | 251° |
| 2026-04-30 12:24 | 24.91306 | 39.64814 | 8228 ft | 292 kts | 222° |
| 2026-04-30 12:25 | 24.89547 | 39.63774 | 7815 ft | 290 kts | 192° |
| 2026-04-30 12:25 | 24.87570 | 39.63820 | 7403 ft | 288 kts | 169° |
| 2026-04-30 12:25 | 24.85623 | 39.64327 | 6993 ft | 286 kts | 167° |
| 2026-04-30 12:25 | 24.83722 | 39.64785 | 6922 ft | 272 kts | 169° |
| 2026-04-30 12:26 | 24.81905 | 39.65170 | 6818 ft | 260 kts | 170° |
| 2026-04-30 12:26 | 24.80143 | 39.65541 | 6564 ft | 256 kts | 169° |
| 2026-04-30 12:26 | 24.78400 | 39.65911 | 6238 ft | 254 kts | 169° |
| 2026-04-30 12:26 | 24.76667 | 39.66281 | 5897 ft | 252 kts | 169° |
| 2026-04-30 12:27 | 24.74978 | 39.66641 | 5563 ft | 242 kts | 170° |
| 2026-04-30 12:27 | 24.73358 | 39.66987 | 5254 ft | 232 kts | 170° |
| 2026-04-30 12:27 | 24.71803 | 39.67318 | 4950 ft | 223 kts | 170° |
| 2026-04-30 12:27 | 24.70303 | 39.67637 | 4671 ft | 214 kts | 170° |
| 2026-04-30 12:28 | 24.68900 | 39.67936 | 4393 ft | 198 kts | 171° |
| 2026-04-30 12:28 | 24.67652 | 39.68202 | 4158 ft | 176 kts | 171° |
| 2026-04-30 12:28 | 24.66509 | 39.68446 | 3907 ft | 160 kts | 171° |
| 2026-04-30 12:28 | 24.65446 | 39.68672 | 3716 ft | 151 kts | 171° |
| 2026-04-30 12:29 | 24.64420 | 39.68890 | 3510 ft | 148 kts | 171° |
| 2026-04-30 12:29 | 24.63410 | 39.69104 | 3318 ft | 147 kts | 171° |
| 2026-04-30 12:29 | 24.62417 | 39.69315 | 3127 ft | 147 kts | 171° |
| 2026-04-30 12:29 | 24.61418 | 39.69527 | 2928 ft | 146 kts | 171° |
| 2026-04-30 12:30 | 24.60426 | 39.69738 | 2740 ft | 145 kts | 171° |
| 2026-04-30 12:30 | 24.59438 | 39.69947 | 2534 ft | 144 kts | 171° |
| 2026-04-30 12:30 | 24.58452 | 39.70156 | 2342 ft | 144 kts | 170° |
| 2026-04-30 12:30 | 24.57478 | 39.70361 | 2146 ft | 143 kts | 171° |
| 2026-04-30 12:31 | 24.56560 | 39.70562 | 2114 ft | 119 kts | 169° |
| 2026-04-30 12:31 | 24.56491 | 39.70576 | 2114 ft | 114 kts | 168° |
| 2026-04-30 12:31 | 24.55878 | 39.70707 | 2111 ft | 72 kts | 169° |
| 2026-04-30 12:31 | 24.55456 | 39.70799 | 2110 ft | 39 kts | 166° |
| 2026-04-30 12:32 | 24.55289 | 39.70895 | 2109 ft | 27 kts | 143° |
| 2026-04-30 12:32 | 24.55213 | 39.70971 | 2109 ft | 11 kts | 115° |
| 2026-04-30 12:32 | 24.55219 | 39.71050 | 2107 ft | 11 kts | 79° |
| 2026-04-30 12:32 | 24.55234 | 39.71129 | 2106 ft | 11 kts | 78° |
| 2026-04-30 12:33 | 24.55237 | 39.71207 | 2105 ft | 10 kts | 101° |